Airfield :
LOGIN :

Register | Disclaimer

   EN    FR    IT 

 










Legend :    VFR   Marginal VFR   IFR   Intensive IFR   Very Intensive IFR
Visi :
Ceiling :
>= 8 km
>= 3000ft
5 to 8 km
1000 to 3000 ft
1500m to 5 km
500 to 1000 ft
800 to 1500m
200 to 500 ft
< 800m
< 200 ft
Symbols :   Thunderstorms  Fog  Heavy snow  Heavy precipitations  Wind > 20 kt
SIGMETs :     Misc.  Thunderstorms  Icing  Turbulence  Mountain Waves  Volcanic Ashes






- Airport Elevation : 1411 ft
- IATA code : ZHI


LSZG - Grenchen

CURRENT METAR :
  • 261650Z AUTO 20004KT 9999 FEW075 02/M00 Q1010

EXPIRED METARs :
  • 261620Z AUTO 21008KT 9999 FEW028 SCT047 BKN055 02/00 Q1009
  • 261550Z 23010KT 8000 -SN FEW025 SCT046 BKN055 01/M00 Q1009 TEMPO 1000 SN
  • 261520Z 29017KT 9999 VCSH FEW033 03/M03 Q1008 TEMPO 1000 SN
  • 261450Z 28013KT 9999 VCSH FEW028 03/M02 Q1008 TEMPO 1000 SN
  • 261420Z 25014KT 1500 -SN VV009 00/M00 Q1008 BECMG NSW

TAF TAF LSZG
Valid from the 26 at 15:00 until the 27 at 00:00 UTC


261425Z 2615/2624 24010KT 9999 SCT015 BKN030
TEMPO 2615/2624 24015G25KT 1200 SHSN BKN005
PROB30
TEMPO 2615/2619 30017G35KT 0800 TSSN VV003
ATIS : +41 32 396 96 33



MET'MAP, your aeronautical weather chart ! - Copyright ORBIFLY December 2007 - Disclaimer

ORBIFLY MET'MAP TEAM :

Programming & Development : Alexandra Zaïnal
Concept & original design : Baudouin d'Aumeries
Assistance for programming : Marc-Olivier Méhu
Technical & hardware support : Manuel Goepfert

Contact : metmap@orbifly.com




SOURCES & CREDITS :

   NOAA